Vass, North Carolina
Current Conditions -  °F | °C
As of 11:15 PM on Sunday 21 Dec 2014 (Local Time) from KSOP Reporting Station
Overcast Overcast  
Wind Chill: 40°   Ceiling: 3000
Heat Index: 45°   Visibility: 10mi
Dew Point: 34°   Wind: 8mph
Humidity: 66%   Direction: 60°ENE
Pressure: 30.19"   Gusts: NA
Location:  35.26°N, 79.28°W
Report Text: KSOP 220415Z AUTO 06007KT 10SM OVC030 07/01 A3019 RMK AO1
Loading
Personal Weather Stations






























Interactive Weather Map New forecast layout! Learn more

10-Day Weather Forecast

Advertisements
Track Severe Weather on mobile